Terminal Aerodrome Forecast
Issued by NWS

Home | Current Version | Previous Version | Text Only | Print | Product List | Glossary On
Versions: 1 2 3 4 5 6 7 8 9 10 11 12 13 14 15 16 17
000
FTUS43 KAPX 300520
TAFPLN
TAF
KPLN 300520Z 3006/3106 22005KT P6SM OVC080 WS008/27030KT
     FM300800 23006KT P6SM SCT090 WS008/27035KT
     FM301300 26014G26KT P6SM SKC
     FM301800 27014G22KT P6SM BKN035
     FM302100 30012G20KT P6SM BKN035=

USA.gov is the U.S. government's official web portal to all federal, state and local government web resources and services.